createdAt,value
2022-09-06T00:01:15.275Z,100.00
2022-09-06T00:03:43.055Z,100.00
2022-09-06T00:06:13.894Z,100.00
2022-09-06T00:08:42.777Z,100.00
2022-09-06T00:11:13.650Z,100.00
2022-09-06T00:13:41.242Z,100.00
2022-09-06T00:16:17.617Z,100.00
2022-09-06T00:18:45.397Z,100.00
2022-09-06T00:21:16.119Z,100.00
2022-09-06T00:23:43.844Z,100.00
2022-09-06T00:26:11.152Z,100.00
2022-09-06T00:28:39.263Z,100.00
2022-09-06T00:31:11.926Z,100.00
2022-09-06T00:33:39.862Z,100.00
2022-09-06T00:36:07.733Z,100.00
2022-09-06T00:38:36.460Z,100.00
2022-09-06T00:41:04.707Z,100.00
2022-09-06T00:43:33.046Z,100.00
2022-09-06T00:46:01.357Z,100.00
2022-09-06T00:48:29.909Z,100.00
2022-09-06T00:50:59.941Z,100.00
2022-09-06T00:53:27.703Z,100.00
2022-09-06T00:55:56.994Z,100.00
2022-09-06T00:58:25.380Z,100.00
2022-09-06T01:00:53.393Z,100.00
2022-09-06T01:03:22.444Z,100.00
2022-09-06T01:05:52.736Z,100.00
2022-09-06T01:08:58.754Z,100.00
2022-09-06T01:11:41.081Z,100.00
2022-09-06T01:14:24.731Z,100.00
2022-09-06T01:17:00.230Z,100.00
2022-09-06T01:19:33.248Z,100.00
2022-09-06T01:22:49.257Z,100.00
2022-09-06T01:25:26.704Z,100.00
2022-09-06T01:28:03.264Z,100.00
2022-09-06T01:30:34.079Z,100.00
2022-09-06T01:33:17.343Z,100.00
2022-09-06T01:35:48.785Z,100.00
2022-09-06T01:38:16.394Z,100.00
2022-09-06T01:40:46.072Z,100.00
2022-09-06T01:43:25.754Z,100.00
2022-09-06T01:46:05.595Z,100.00
2022-09-06T01:48:38.844Z,100.00
2022-09-06T01:51:22.226Z,100.00
2022-09-06T01:54:17.472Z,100.00
2022-09-06T01:57:26.657Z,100.00
2022-09-06T01:59:53.976Z,100.00
2022-09-06T02:02:45.691Z,100.00
2022-09-06T02:05:27.582Z,100.00
2022-09-06T02:07:59.090Z,100.00
2022-09-06T02:10:32.245Z,100.00
2022-09-06T02:13:01.147Z,100.00
2022-09-06T02:15:34.755Z,100.00
2022-09-06T02:18:10.410Z,100.00
2022-09-06T02:20:42.271Z,100.00
2022-09-06T02:23:12.265Z,100.00
2022-09-06T02:25:42.904Z,100.00
2022-09-06T02:28:10.895Z,100.00
2022-09-06T02:30:44.091Z,100.00
2022-09-06T02:33:16.708Z,100.00
2022-09-06T02:35:46.883Z,100.00
2022-09-06T02:38:14.738Z,100.00
2022-09-06T02:40:43.334Z,100.00
2022-09-06T02:43:10.734Z,100.00
2022-09-06T02:45:38.095Z,100.00
2022-09-06T02:48:05.545Z,100.00
2022-09-06T02:50:32.964Z,100.00
2022-09-06T02:53:12.096Z,100.00
2022-09-06T02:55:39.864Z,100.00
2022-09-06T02:58:10.722Z,100.00
2022-09-06T03:00:38.170Z,100.00
2022-09-06T03:03:05.850Z,100.00
2022-09-06T03:05:33.494Z,100.00
2022-09-06T03:08:00.877Z,100.00
2022-09-06T03:10:28.227Z,100.00
2022-09-06T03:12:55.731Z,100.00
2022-09-06T03:15:23.042Z,100.00
2022-09-06T03:17:50.396Z,100.00
2022-09-06T03:20:17.943Z,100.00
2022-09-06T03:22:45.171Z,100.00
2022-09-06T03:25:12.514Z,100.00
2022-09-06T03:27:41.449Z,100.00
2022-09-06T03:30:09.253Z,100.00
2022-09-06T03:32:36.718Z,100.00
2022-09-06T03:35:04.380Z,100.00
2022-09-06T03:37:31.743Z,100.00
2022-09-06T03:40:00.051Z,100.00
2022-09-06T03:42:28.194Z,100.00
2022-09-06T03:44:55.952Z,100.00
2022-09-06T03:47:23.776Z,100.00
2022-09-06T03:49:51.635Z,100.00
2022-09-06T03:52:19.212Z,100.00
2022-09-06T03:55:03.246Z,100.00
2022-09-06T03:57:30.719Z,100.00
2022-09-06T03:59:58.534Z,100.00
2022-09-06T04:02:26.050Z,100.00
2022-09-06T04:04:55.665Z,100.00
2022-09-06T04:07:23.434Z,100.00
2022-09-06T04:09:51.691Z,100.00
2022-09-06T04:12:18.971Z,100.00
2022-09-06T04:14:47.236Z,100.00
2022-09-06T04:17:14.846Z,100.00
2022-09-06T04:19:42.134Z,100.00
2022-09-06T04:22:09.787Z,100.00
2022-09-06T04:24:37.081Z,100.00
2022-09-06T04:27:04.739Z,100.00
2022-09-06T04:29:33.339Z,100.00
2022-09-06T04:32:00.894Z,100.00
2022-09-06T04:34:31.132Z,100.00
2022-09-06T04:36:58.750Z,100.00
2022-09-06T04:39:29.814Z,100.00
2022-09-06T04:41:58.385Z,100.00
2022-09-06T04:44:26.002Z,100.00
2022-09-06T04:47:08.798Z,100.00
2022-09-06T04:49:37.017Z,100.00
2022-09-06T04:52:07.654Z,100.00
2022-09-06T04:54:35.673Z,97.55
2022-09-06T04:57:04.530Z,97.92
2022-09-06T04:59:33.007Z,100.00
2022-09-06T05:02:07.729Z,95.60
2022-09-06T05:04:37.676Z,88.22
2022-09-06T05:07:07.539Z,79.83
2022-09-06T05:09:39.472Z,75.33
2022-09-06T05:12:09.617Z,71.28
2022-09-06T05:14:37.144Z,67.04
2022-09-06T05:17:06.658Z,64.85
2022-09-06T05:19:34.059Z,62.87
2022-09-06T05:22:01.468Z,60.11
2022-09-06T05:24:29.106Z,57.79
2022-09-06T05:26:56.896Z,56.20
2022-09-06T05:29:27.590Z,55.69
2022-09-06T05:31:58.965Z,54.47
2022-09-06T05:34:26.985Z,54.68
2022-09-06T05:37:03.362Z,53.82
2022-09-06T05:39:31.751Z,52.54
2022-09-06T05:42:19.863Z,52.17
2022-09-06T05:44:47.895Z,53.27
2022-09-06T05:47:15.332Z,54.17
2022-09-06T05:49:42.676Z,54.25
2022-09-06T05:52:10.504Z,53.57
2022-09-06T05:54:37.775Z,51.46
2022-09-06T05:57:07.675Z,52.00
2022-09-06T05:59:35.005Z,51.53
2022-09-06T06:02:07.058Z,48.16
2022-09-06T06:04:36.165Z,48.36
2022-09-06T06:07:03.643Z,49.50
2022-09-06T06:09:33.662Z,49.48
2022-09-06T06:12:03.712Z,50.22
2022-09-06T06:14:31.279Z,50.27
2022-09-06T06:16:58.958Z,49.38
2022-09-06T06:19:29.918Z,52.29
2022-09-06T06:22:06.622Z,58.40
2022-09-06T06:24:36.718Z,61.84
2022-09-06T06:27:04.380Z,67.68
2022-09-06T06:29:33.494Z,72.80
2022-09-06T06:32:01.296Z,73.16
2022-09-06T06:34:28.991Z,76.29
2022-09-06T06:36:59.270Z,79.18
2022-09-06T06:39:27.055Z,79.23
2022-09-06T06:41:54.618Z,80.13
2022-09-06T06:44:23.568Z,81.50
2022-09-06T06:46:52.252Z,81.34
2022-09-06T06:49:19.812Z,79.75
2022-09-06T06:51:47.238Z,78.12
2022-09-06T06:54:14.825Z,78.63
2022-09-06T06:56:47.815Z,77.15
2022-09-06T06:59:15.363Z,76.65
2022-09-06T07:01:45.966Z,76.36
2022-09-06T07:04:14.381Z,75.97
2022-09-06T07:12:31.980Z,72.51
2022-09-06T07:14:59.911Z,71.12
2022-09-06T07:17:33.266Z,71.43
2022-09-06T07:20:16.774Z,72.44
2022-09-06T07:22:47.478Z,70.93
2022-09-06T07:25:21.205Z,71.63
2022-09-06T07:28:07.390Z,73.37
2022-09-06T07:30:50.296Z,73.14
2022-09-06T07:33:20.558Z,73.11
2022-09-06T07:36:06.917Z,73.91
2022-09-06T07:38:40.878Z,74.38
2022-09-06T07:41:10.177Z,73.00
2022-09-06T07:43:38.474Z,69.34
2022-09-06T07:46:30.959Z,69.62
2022-09-06T07:48:58.467Z,67.63
2022-09-06T07:51:29.561Z,65.86
2022-09-06T07:54:26.393Z,64.68
2022-09-06T07:56:54.606Z,65.02
2022-09-06T07:59:22.432Z,62.36
2022-09-06T08:01:50.534Z,63.46
2022-09-06T08:04:19.440Z,62.05
2022-09-06T08:09:40.687Z,61.50
2022-09-06T08:12:08.617Z,61.11
2022-09-06T08:14:36.338Z,60.62
2022-09-06T08:17:12.746Z,59.80
2022-09-06T08:19:41.865Z,59.08
2022-09-06T08:22:12.185Z,58.56
2022-09-06T08:24:40.545Z,57.54
2022-09-06T08:27:08.198Z,55.79
2022-09-06T08:29:40.070Z,56.11
2022-09-06T08:32:11.940Z,55.94
2022-09-06T08:34:39.411Z,55.42
2022-09-06T08:37:07.548Z,55.42
2022-09-06T08:39:35.256Z,55.79
2022-09-06T08:42:06.918Z,54.93
2022-09-06T08:44:56.455Z,55.04
2022-09-06T08:47:25.462Z,55.64
2022-09-06T08:50:09.510Z,57.29
2022-09-06T08:53:18.586Z,57.51
2022-09-06T08:55:56.932Z,57.94
2022-09-06T08:58:30.243Z,58.35
2022-09-06T09:01:16.199Z,55.18
2022-09-06T09:03:46.913Z,54.48
2022-09-06T09:06:20.240Z,54.62
2022-09-06T09:09:07.941Z,55.17
2022-09-06T09:11:39.480Z,55.64
2022-09-06T09:14:23.293Z,56.38
2022-09-06T09:16:52.068Z,55.40
2022-09-06T09:19:19.733Z,55.11
2022-09-06T09:21:50.109Z,53.97
2022-09-06T09:24:17.830Z,54.50
2022-09-06T09:27:11.562Z,56.12
2022-09-06T09:32:47.996Z,57.48
2022-09-06T09:35:31.151Z,56.96
2022-09-06T09:38:20.895Z,56.42
2022-09-06T09:41:03.900Z,55.59
2022-09-06T09:43:35.374Z,55.02
2022-09-06T09:46:23.617Z,54.05
2022-09-06T09:49:02.797Z,54.00
2022-09-06T09:51:32.435Z,52.45
2022-09-06T09:54:03.950Z,51.63
2022-09-06T09:56:44.343Z,51.79
2022-09-06T09:59:20.876Z,51.96
2022-09-06T10:01:48.742Z,52.05
2022-09-06T10:07:21.068Z,53.02
2022-09-06T10:10:08.712Z,52.17
2022-09-06T10:12:41.461Z,51.77
2022-09-06T10:15:12.360Z,52.69
2022-09-06T10:17:51.603Z,52.25
2022-09-06T10:20:19.350Z,51.88
2022-09-06T10:22:56.653Z,50.54
2022-09-06T10:25:39.940Z,50.46
2022-09-06T10:28:26.367Z,49.60
2022-09-06T10:31:16.342Z,51.40
2022-09-06T10:34:17.584Z,50.57
2022-09-06T10:36:59.298Z,50.92
2022-09-06T10:39:47.618Z,49.83
2022-09-06T10:42:47.759Z,49.26
2022-09-06T10:45:37.726Z,48.53
2022-09-06T10:48:21.205Z,47.30
2022-09-06T10:50:50.989Z,48.18
2022-09-06T10:53:42.548Z,49.25
2022-09-06T10:56:13.699Z,48.01
2022-09-06T11:02:18.245Z,47.68
2022-09-06T11:10:40.320Z,47.96
2022-09-06T11:13:17.325Z,49.97
2022-09-06T11:16:15.016Z,51.11
2022-09-06T11:19:06.281Z,52.49
2022-09-06T11:21:47.742Z,53.33
2022-09-06T11:24:37.178Z,53.87
2022-09-06T11:27:22.995Z,54.86
2022-09-06T11:29:56.510Z,55.37
2022-09-06T11:32:38.531Z,55.08
2022-09-06T11:35:11.337Z,53.84
2022-09-06T11:37:43.106Z,53.89
2022-09-06T11:42:52.295Z,52.70
2022-09-06T11:45:44.582Z,52.25
2022-09-06T11:48:24.125Z,52.15
2022-09-06T11:50:54.739Z,51.46
2022-09-06T11:53:28.258Z,50.47
2022-09-06T11:56:02.139Z,49.91
2022-09-06T11:59:03.546Z,48.71
2022-09-06T12:01:30.912Z,49.43
2022-09-06T12:04:07.048Z,48.68
2022-09-06T12:07:00.120Z,48.50
2022-09-06T12:09:34.613Z,46.83
2022-09-06T12:12:05.330Z,46.78
2022-09-06T12:14:46.144Z,47.36
2022-09-06T12:17:13.600Z,47.25
2022-09-06T12:20:02.696Z,46.37
2022-09-06T12:22:31.134Z,45.81
2022-09-06T12:25:08.030Z,45.74
2022-09-06T12:27:44.376Z,46.10
2022-09-06T12:30:16.630Z,46.78
2022-09-06T12:32:47.552Z,46.90
2022-09-06T12:38:14.221Z,46.47
2022-09-06T12:40:48.873Z,46.43
2022-09-06T12:43:19.960Z,47.27
2022-09-06T12:45:50.794Z,47.86
2022-09-06T12:48:33.621Z,47.93
2022-09-06T12:51:06.515Z,48.68
2022-09-06T12:53:37.042Z,48.19
2022-09-06T12:56:15.255Z,48.49
2022-09-06T12:58:42.734Z,48.47
2022-09-06T13:01:24.173Z,49.23
2022-09-06T13:04:05.785Z,48.72
2022-09-06T13:06:37.675Z,48.47
2022-09-06T13:09:05.939Z,49.20
2022-09-06T13:11:38.752Z,49.24
2022-09-06T13:14:35.658Z,49.47
2022-09-06T13:17:09.378Z,49.30
2022-09-06T13:19:44.290Z,49.88
2022-09-06T13:22:38.748Z,49.95
2022-09-06T13:25:20.890Z,50.56
2022-09-06T13:27:51.315Z,51.05
2022-09-06T13:30:49.612Z,52.05
2022-09-06T13:33:35.337Z,51.90
2022-09-06T13:36:27.945Z,51.12
2022-09-06T13:38:55.736Z,50.22
2022-09-06T13:41:26.461Z,50.22
2022-09-06T13:44:05.390Z,50.68
2022-09-06T13:46:38.530Z,51.63
2022-09-06T13:49:06.242Z,52.30
2022-09-06T13:51:34.206Z,52.66
2022-09-06T13:54:16.146Z,52.70
2022-09-06T13:56:45.073Z,53.32
2022-09-06T13:59:13.032Z,53.58
2022-09-06T14:01:44.661Z,52.92
2022-09-06T14:04:15.731Z,53.12
2022-09-06T14:06:45.028Z,53.84
2022-09-06T14:09:12.709Z,53.75
2022-09-06T14:11:42.879Z,54.75
2022-09-06T14:14:14.096Z,55.64
2022-09-06T14:16:42.618Z,56.03
2022-09-06T14:19:11.382Z,55.94
2022-09-06T14:21:39.460Z,55.97
2022-09-06T14:24:11.227Z,56.17
2022-09-06T14:26:42.476Z,55.85
2022-09-06T14:29:10.238Z,55.95
2022-09-06T14:31:39.763Z,56.12
2022-09-06T14:34:13.219Z,56.57
2022-09-06T14:36:44.476Z,56.72
2022-09-06T14:39:12.113Z,57.51
2022-09-06T14:41:39.711Z,57.77
2022-09-06T14:44:07.569Z,58.14
2022-09-06T14:46:38.356Z,58.33
2022-09-06T14:49:10.105Z,59.27
2022-09-06T14:51:41.127Z,60.37
2022-09-06T14:54:10.972Z,61.21
2022-09-06T14:56:40.644Z,61.70
2022-09-06T14:59:09.294Z,62.38
2022-09-06T15:01:41.249Z,62.20
2022-09-06T15:04:11.150Z,62.73
2022-09-06T15:06:44.213Z,63.34
2022-09-06T15:09:12.313Z,63.95
2022-09-06T15:11:46.342Z,64.24
2022-09-06T15:14:20.433Z,65.05
2022-09-06T15:16:54.797Z,64.46
2022-09-06T15:19:25.943Z,64.58
2022-09-06T15:21:54.163Z,64.90
2022-09-06T15:24:21.800Z,64.59
2022-09-06T15:26:49.924Z,65.59
2022-09-06T15:29:17.521Z,66.47
2022-09-06T15:31:50.301Z,67.61
2022-09-06T15:34:22.479Z,68.41
2022-09-06T15:36:51.245Z,68.66
2022-09-06T15:39:18.994Z,69.11
2022-09-06T15:41:50.229Z,69.60
2022-09-06T15:44:19.769Z,68.95
2022-09-06T15:46:50.192Z,69.72
2022-09-06T15:49:29.051Z,68.84
2022-09-06T15:51:58.298Z,69.00
2022-09-06T15:54:45.494Z,69.42
2022-09-06T15:57:17.460Z,69.27
2022-09-06T15:59:45.599Z,70.03
2022-09-06T16:02:13.885Z,69.50
2022-09-06T16:04:41.454Z,69.60
2022-09-06T16:07:10.083Z,69.53
2022-09-06T16:09:37.807Z,70.13
2022-09-06T16:12:05.907Z,70.03
2022-09-06T16:14:35.778Z,70.15
2022-09-06T16:17:03.503Z,70.46
2022-09-06T16:19:30.904Z,70.75
2022-09-06T16:21:59.073Z,71.38
2022-09-06T16:24:26.674Z,71.70
2022-09-06T16:26:54.149Z,71.78
2022-09-06T16:29:24.919Z,72.08
2022-09-06T16:31:59.659Z,71.97
2022-09-06T16:34:27.533Z,72.29
2022-09-06T16:36:57.052Z,72.97
2022-09-06T16:39:24.754Z,73.26
2022-09-06T16:41:54.357Z,73.50
2022-09-06T16:44:21.769Z,74.55
2022-09-06T16:46:50.605Z,74.35
2022-09-06T16:49:19.609Z,73.98
2022-09-06T16:51:48.868Z,72.54
2022-09-06T16:54:16.925Z,72.31
2022-09-06T16:56:44.961Z,72.34
2022-09-06T16:59:13.153Z,72.44
2022-09-06T17:01:44.695Z,72.65
2022-09-06T17:04:13.268Z,73.10
2022-09-06T17:06:45.058Z,73.62
2022-09-06T17:09:14.981Z,74.04
2022-09-06T17:11:42.937Z,74.20
2022-09-06T17:14:11.556Z,74.80
2022-09-06T17:16:57.700Z,74.94
2022-09-06T17:19:32.011Z,74.76
2022-09-06T17:22:02.837Z,74.62
2022-09-06T17:24:31.195Z,74.70
2022-09-06T17:26:58.938Z,74.61
2022-09-06T17:29:27.920Z,74.99
2022-09-06T17:31:56.249Z,75.28
2022-09-06T17:34:26.679Z,75.46
2022-09-06T17:36:54.397Z,75.34
2022-09-06T17:39:21.850Z,75.63
2022-09-06T17:41:52.337Z,76.02
2022-09-06T17:44:22.308Z,76.37
2022-09-06T17:47:12.021Z,76.17
2022-09-06T17:49:41.137Z,77.10
2022-09-06T17:52:12.199Z,76.51
2022-09-06T17:54:39.829Z,76.84
2022-09-06T17:57:25.675Z,77.40
2022-09-06T17:59:55.376Z,78.15
2022-09-06T18:02:25.891Z,78.36
2022-09-06T18:04:53.234Z,78.99
2022-09-06T18:07:23.243Z,80.54
2022-09-06T18:09:54.757Z,81.21
2022-09-06T18:12:24.439Z,81.41
2022-09-06T18:14:56.842Z,81.92
2022-09-06T18:17:40.125Z,82.98
2022-09-06T18:20:08.453Z,83.95
2022-09-06T18:22:40.309Z,84.68
2022-09-06T18:25:08.911Z,85.74
2022-09-06T18:27:49.160Z,86.71
2022-09-06T18:30:29.898Z,86.99
2022-09-06T18:33:29.486Z,87.44
2022-09-06T18:35:57.070Z,87.78
2022-09-06T18:38:24.552Z,88.28
2022-09-06T18:40:53.607Z,88.89
2022-09-06T18:43:22.258Z,89.26
2022-09-06T18:45:53.695Z,89.72
2022-09-06T18:48:21.198Z,90.06
2022-09-06T18:50:48.611Z,90.30
2022-09-06T18:53:18.268Z,91.50
2022-09-06T18:55:45.805Z,92.43
2022-09-06T18:58:14.299Z,92.94
2022-09-06T19:00:52.396Z,93.52
2022-09-06T19:03:21.544Z,94.25
2022-09-06T19:08:52.882Z,98.47
2022-09-06T19:11:21.672Z,100.00
2022-09-06T19:13:53.931Z,100.00
2022-09-06T19:16:22.705Z,100.00
2022-09-06T19:18:51.603Z,99.59
2022-09-06T19:21:20.226Z,98.69
2022-09-06T19:23:56.545Z,100.00
2022-09-06T19:26:25.190Z,100.00
2022-09-06T19:28:56.393Z,98.91
2022-09-06T19:31:25.549Z,97.77
2022-09-06T19:33:57.335Z,96.49
2022-09-06T19:36:25.869Z,95.59
2022-09-06T19:39:03.544Z,94.95
2022-09-06T19:41:36.911Z,93.89
2022-09-06T19:44:08.813Z,93.06
2022-09-06T19:46:37.315Z,92.40
2022-09-06T19:49:05.513Z,91.92
2022-09-06T19:51:35.802Z,91.29
2022-09-06T19:54:03.676Z,90.80
2022-09-06T19:56:34.380Z,90.22
2022-09-06T19:59:06.141Z,89.94
2022-09-06T20:01:39.654Z,89.12
2022-09-06T20:04:14.678Z,88.33
2022-09-06T20:06:46.102Z,87.77
2022-09-06T20:09:15.491Z,87.68
2022-09-06T20:11:44.326Z,87.50
2022-09-06T20:14:12.503Z,87.01
2022-09-06T20:16:42.463Z,86.78
2022-09-06T20:19:12.225Z,86.57
2022-09-06T20:21:40.303Z,86.37
2022-09-06T20:24:12.107Z,87.03
2022-09-06T20:26:47.091Z,87.12
2022-09-06T20:29:14.607Z,87.94
2022-09-06T20:31:42.253Z,88.50
2022-09-06T20:34:10.834Z,88.83
2022-09-06T20:36:39.108Z,89.11
2022-09-06T20:39:06.477Z,90.07
2022-09-06T20:41:37.623Z,90.42
2022-09-06T20:44:07.979Z,91.04
2022-09-06T20:46:36.192Z,91.33
2022-09-06T20:49:05.142Z,91.50
2022-09-06T20:51:35.656Z,91.43
2022-09-06T20:54:05.396Z,92.40
2022-09-06T20:56:39.259Z,92.40
2022-09-06T20:59:10.318Z,92.31
2022-09-06T21:01:40.849Z,92.40
2022-09-06T21:04:09.878Z,93.74
2022-09-06T21:06:38.656Z,94.77
2022-09-06T21:09:10.494Z,96.26
2022-09-06T21:11:39.786Z,95.85
2022-09-06T21:14:11.621Z,96.16
2022-09-06T21:16:40.793Z,97.06
2022-09-06T21:19:09.844Z,96.89
2022-09-06T21:21:38.759Z,97.11
2022-09-06T21:24:07.349Z,97.29
2022-09-06T21:26:35.971Z,97.38
2022-09-06T21:29:04.117Z,98.58
2022-09-06T21:31:33.874Z,100.00
2022-09-06T21:34:05.048Z,100.00
2022-09-06T21:36:37.431Z,100.00
2022-09-06T21:39:09.651Z,100.00
2022-09-06T21:41:38.725Z,100.00
2022-09-06T21:44:06.945Z,100.00
2022-09-06T21:46:36.268Z,100.00
2022-09-06T21:49:07.272Z,100.00
2022-09-06T21:51:35.093Z,100.00
2022-09-06T21:54:05.079Z,100.00
2022-09-06T21:56:35.754Z,100.00
2022-09-06T21:59:04.776Z,100.00
2022-09-06T22:01:36.862Z,100.00
2022-09-06T22:04:05.169Z,100.00
2022-09-06T22:06:34.534Z,100.00
2022-09-06T22:09:04.898Z,100.00
2022-09-06T22:11:35.613Z,100.00
2022-09-06T22:14:06.580Z,100.00
2022-09-06T22:16:38.876Z,100.00
2022-09-06T22:19:07.340Z,100.00
2022-09-06T22:21:35.092Z,100.00
2022-09-06T22:24:06.610Z,100.00
2022-09-06T22:26:35.474Z,100.00
2022-09-06T22:29:05.784Z,100.00
2022-09-06T22:31:34.317Z,100.00
2022-09-06T22:34:02.785Z,100.00
2022-09-06T22:36:32.465Z,100.00
2022-09-06T22:38:59.969Z,100.00
2022-09-06T22:41:29.789Z,100.00
2022-09-06T22:43:57.259Z,100.00
2022-09-06T22:46:24.629Z,100.00
2022-09-06T22:48:52.404Z,100.00
2022-09-06T22:51:19.711Z,100.00
2022-09-06T22:53:47.763Z,100.00
2022-09-06T22:56:15.034Z,100.00
2022-09-06T22:58:42.282Z,100.00
2022-09-06T23:01:13.954Z,100.00
2022-09-06T23:03:42.354Z,100.00
2022-09-06T23:06:10.250Z,100.00
2022-09-06T23:08:38.963Z,100.00
2022-09-06T23:11:08.763Z,100.00
2022-09-06T23:13:36.270Z,100.00
2022-09-06T23:16:05.930Z,100.00
2022-09-06T23:18:33.941Z,100.00
2022-09-06T23:21:08.998Z,100.00
2022-09-06T23:23:38.328Z,100.00
2022-09-06T23:26:08.267Z,100.00
2022-09-06T23:28:36.910Z,100.00
2022-09-06T23:31:08.713Z,100.00
2022-09-06T23:33:37.428Z,100.00
2022-09-06T23:36:08.824Z,100.00
2022-09-06T23:38:37.537Z,100.00
2022-09-06T23:41:06.020Z,100.00
2022-09-06T23:43:34.141Z,100.00
2022-09-06T23:46:01.524Z,100.00
2022-09-06T23:48:29.172Z,100.00
2022-09-06T23:50:56.732Z,100.00
2022-09-06T23:53:24.612Z,100.00
2022-09-06T23:55:52.235Z,100.00
2022-09-06T23:58:19.745Z,100.00
